createdAt,value
2018-06-05T00:00:59.820Z,11.16
2018-06-05T00:01:59.692Z,11.27
2018-06-05T00:02:59.570Z,11.25
2018-06-05T00:03:59.445Z,11.21
2018-06-05T00:04:59.325Z,11.07
2018-06-05T00:05:59.205Z,11.10
2018-06-05T00:06:59.072Z,11.09
2018-06-05T00:07:58.952Z,11.14
2018-06-05T00:08:58.828Z,11.06
2018-06-05T00:09:58.703Z,11.02
2018-06-05T00:10:58.579Z,11.10
2018-06-05T00:11:58.454Z,10.95
2018-06-05T00:12:58.332Z,10.96
2018-06-05T00:13:58.205Z,10.95
2018-06-05T00:14:58.087Z,10.88
2018-06-05T00:15:57.960Z,10.91
2018-06-05T00:16:57.834Z,10.81
2018-06-05T00:17:57.711Z,10.81
2018-06-05T00:18:57.587Z,10.84
2018-06-05T00:19:57.461Z,10.71
2018-06-05T00:20:57.340Z,10.81
2018-06-05T00:21:57.215Z,10.70
2018-06-05T00:22:57.089Z,10.78
2018-06-05T00:23:56.967Z,10.76
2018-06-05T00:24:56.843Z,10.76
2018-06-05T00:25:56.720Z,10.65
2018-06-05T00:26:56.634Z,10.66
2018-06-05T00:27:56.474Z,10.63
2018-06-05T00:28:56.347Z,10.66
2018-06-05T00:29:56.240Z,10.68
2018-06-05T00:30:56.097Z,10.58
2018-06-05T00:31:55.974Z,10.58
2018-06-05T00:32:55.853Z,10.58
2018-06-05T00:33:55.726Z,10.65
2018-06-05T00:34:55.603Z,10.62
2018-06-05T00:35:55.478Z,10.59
2018-06-05T00:36:55.354Z,10.52
2018-06-05T00:37:55.230Z,10.58
2018-06-05T00:38:55.107Z,10.58
2018-06-05T00:39:54.982Z,10.59
2018-06-05T00:40:54.857Z,10.62
2018-06-05T00:41:54.733Z,10.62
2018-06-05T00:42:54.608Z,10.66
2018-06-05T00:43:54.483Z,10.58
2018-06-05T00:44:54.360Z,10.59
2018-06-05T00:45:54.237Z,10.62
2018-06-05T00:46:54.109Z,10.56
2018-06-05T00:47:53.988Z,10.56
2018-06-05T00:48:53.874Z,10.59
2018-06-05T00:49:53.736Z,10.63
2018-06-05T00:50:53.614Z,10.62
2018-06-05T00:51:53.489Z,10.63
2018-06-05T00:52:53.367Z,10.63
2018-06-05T00:53:53.240Z,10.60
2018-06-05T00:54:53.116Z,10.56
2018-06-05T00:55:52.993Z,10.60
2018-06-05T00:56:52.896Z,10.60
2018-06-05T00:57:52.742Z,10.53
2018-06-05T00:58:52.620Z,10.47
2018-06-05T00:59:52.500Z,10.59
2018-06-05T01:00:52.372Z,10.58
2018-06-05T01:01:52.245Z,10.53
2018-06-05T01:02:52.127Z,10.43
2018-06-05T01:03:51.998Z,10.46
2018-06-05T01:04:51.873Z,10.53
2018-06-05T01:05:51.748Z,10.51
2018-06-05T01:06:51.627Z,10.42
2018-06-05T01:07:51.504Z,10.43
2018-06-05T01:08:51.376Z,10.53
2018-06-05T01:09:51.252Z,10.52
2018-06-05T01:10:51.126Z,10.52
2018-06-05T01:11:51.005Z,10.44
2018-06-05T01:12:50.879Z,10.46
2018-06-05T01:13:50.757Z,10.43
2018-06-05T01:14:50.635Z,10.40
2018-06-05T01:15:50.512Z,10.44
2018-06-05T01:16:50.388Z,10.37
2018-06-05T01:17:50.260Z,10.36
2018-06-05T01:18:50.140Z,10.40
2018-06-05T01:19:50.010Z,10.32
2018-06-05T01:20:49.892Z,10.34
2018-06-05T01:21:49.766Z,10.39
2018-06-05T01:22:49.640Z,10.32
2018-06-05T01:23:49.513Z,10.21
2018-06-05T01:24:49.390Z,10.30
2018-06-05T01:25:49.265Z,10.22
2018-06-05T01:26:49.143Z,10.30
2018-06-05T01:27:49.017Z,10.39
2018-06-05T01:28:48.891Z,10.30
2018-06-05T01:29:48.768Z,10.22
2018-06-05T01:30:48.642Z,10.25
2018-06-05T01:31:48.529Z,10.19
2018-06-05T01:32:48.393Z,10.21
2018-06-05T01:33:48.271Z,10.21
2018-06-05T01:34:48.147Z,10.24
2018-06-05T01:35:48.022Z,10.21
2018-06-05T01:36:47.902Z,10.24
2018-06-05T01:37:47.772Z,10.15
2018-06-05T01:38:47.650Z,10.18
2018-06-05T01:39:47.532Z,10.15
2018-06-05T01:40:47.402Z,10.14
2018-06-05T01:41:47.278Z,10.17
2018-06-05T01:42:47.151Z,10.18
2018-06-05T01:43:47.028Z,10.19
2018-06-05T01:44:46.903Z,10.17
2018-06-05T01:45:46.779Z,10.24
2018-06-05T01:46:46.654Z,10.22
2018-06-05T01:47:46.528Z,10.28
2018-06-05T01:48:46.403Z,10.26
2018-06-05T01:49:46.281Z,10.26
2018-06-05T01:50:46.156Z,10.21
2018-06-05T01:51:46.029Z,10.21
2018-06-05T01:52:45.911Z,10.19
2018-06-05T01:53:45.784Z,10.17
2018-06-05T01:54:45.658Z,10.17
2018-06-05T01:55:45.535Z,10.19
2018-06-05T01:56:45.412Z,10.24
2018-06-05T01:57:45.285Z,10.17
2018-06-05T01:58:45.157Z,10.25
2018-06-05T01:59:45.037Z,10.19
2018-06-05T02:00:44.910Z,10.19
2018-06-05T02:01:44.786Z,10.19
2018-06-05T02:02:44.660Z,10.18
2018-06-05T02:03:44.535Z,10.17
2018-06-05T02:04:44.413Z,10.21
2018-06-05T02:05:44.290Z,10.21
2018-06-05T02:06:44.162Z,10.15
2018-06-05T02:07:44.041Z,10.21
2018-06-05T02:08:43.914Z,10.19
2018-06-05T02:09:43.787Z,10.26
2018-06-05T02:10:43.664Z,10.30
2018-06-05T02:11:43.542Z,10.25
2018-06-05T02:12:43.414Z,10.25
2018-06-05T02:13:43.290Z,10.22
2018-06-05T02:14:43.168Z,10.21
2018-06-05T02:15:43.039Z,10.22
2018-06-05T02:16:42.919Z,10.21
2018-06-05T02:17:42.792Z,10.17
2018-06-05T02:18:42.668Z,10.17
2018-06-05T02:19:42.543Z,10.18
2018-06-05T02:20:42.419Z,10.14
2018-06-05T02:21:42.294Z,10.17
2018-06-05T02:22:42.167Z,10.22
2018-06-05T02:23:42.045Z,10.25
2018-06-05T02:24:41.919Z,10.17
2018-06-05T02:25:41.795Z,10.18
2018-06-05T02:26:41.671Z,10.15
2018-06-05T02:27:41.548Z,10.06
2018-06-05T02:28:41.422Z,10.14
2018-06-05T02:29:41.297Z,10.21
2018-06-05T02:30:41.171Z,10.19
2018-06-05T02:31:41.050Z,10.21
2018-06-05T02:32:40.928Z,10.17
2018-06-05T02:33:40.799Z,10.22
2018-06-05T02:34:40.676Z,10.22
2018-06-05T02:35:40.553Z,10.14
2018-06-05T02:36:40.424Z,10.21
2018-06-05T02:37:40.301Z,10.28
2018-06-05T02:38:40.177Z,10.18
2018-06-05T02:39:40.055Z,10.22
2018-06-05T02:40:39.930Z,10.25
2018-06-05T02:41:39.801Z,10.17
2018-06-05T02:42:39.677Z,10.06
2018-06-05T02:43:39.552Z,10.15
2018-06-05T02:44:39.429Z,10.15
2018-06-05T02:45:39.305Z,10.18
2018-06-05T02:46:39.181Z,10.09
2018-06-05T02:47:39.055Z,10.17
2018-06-05T02:48:38.932Z,10.21
2018-06-05T02:49:38.806Z,10.07
2018-06-05T02:50:38.686Z,10.14
2018-06-05T02:51:38.557Z,10.17
2018-06-05T02:52:38.432Z,10.12
2018-06-05T02:53:38.307Z,10.17
2018-06-05T02:54:38.182Z,10.17
2018-06-05T02:55:38.059Z,10.14
2018-06-05T02:56:37.933Z,10.14
2018-06-05T02:57:37.807Z,10.22
2018-06-05T02:58:37.683Z,10.06
2018-06-05T02:59:37.560Z,10.22
2018-06-05T03:00:37.437Z,10.19
2018-06-05T03:01:37.312Z,10.22
2018-06-05T03:02:37.187Z,10.18
2018-06-05T03:03:37.064Z,10.17
2018-06-05T03:04:36.939Z,10.18
2018-06-05T03:05:36.810Z,10.14
2018-06-05T03:06:36.689Z,10.14
2018-06-05T03:07:36.562Z,10.17
2018-06-05T03:08:36.440Z,10.15
2018-06-05T03:09:36.315Z,10.15
2018-06-05T03:10:36.190Z,10.09
2018-06-05T03:11:36.071Z,10.10
2018-06-05T03:12:35.942Z,10.15
2018-06-05T03:13:35.818Z,10.15
2018-06-05T03:14:35.695Z,10.19
2018-06-05T03:15:35.569Z,10.14
2018-06-05T03:16:35.443Z,10.14
2018-06-05T03:17:35.317Z,10.19
2018-06-05T03:18:35.193Z,10.14
2018-06-05T03:19:35.067Z,10.18
2018-06-05T03:20:34.943Z,10.17
2018-06-05T03:21:34.817Z,10.10
2018-06-05T03:22:34.694Z,10.03
2018-06-05T03:23:34.570Z,10.04
2018-06-05T03:24:34.444Z,10.01
2018-06-05T03:25:34.320Z,10.04
2018-06-05T03:26:34.197Z,10.07
2018-06-05T03:27:34.073Z,10.06
2018-06-05T03:28:33.948Z,10.04
2018-06-05T03:29:33.820Z,10.10
2018-06-05T03:30:33.697Z,10.07
2018-06-05T03:31:33.574Z,10.03
2018-06-05T03:32:33.447Z,10.07
2018-06-05T03:33:33.326Z,10.07
2018-06-05T03:34:33.197Z,9.94
2018-06-05T03:35:33.074Z,9.97
2018-06-05T03:36:32.952Z,10.06
2018-06-05T03:37:32.827Z,10.09
2018-06-05T03:38:32.699Z,10.00
2018-06-05T03:39:32.573Z,10.03
2018-06-05T03:40:32.448Z,10.06
2018-06-05T03:41:32.323Z,10.10
2018-06-05T03:42:32.200Z,10.09
2018-06-05T03:43:32.084Z,10.14
2018-06-05T03:44:31.950Z,10.04
2018-06-05T03:45:31.825Z,10.03
2018-06-05T03:46:31.702Z,10.01
2018-06-05T03:47:31.576Z,10.04
2018-06-05T03:48:31.494Z,10.03
2018-06-05T03:49:31.326Z,9.93
2018-06-05T03:50:31.205Z,9.99
2018-06-05T03:51:31.080Z,9.96
2018-06-05T03:52:30.957Z,9.91
2018-06-05T03:53:30.828Z,10.04
2018-06-05T03:54:30.706Z,9.97
2018-06-05T03:55:30.579Z,9.96
2018-06-05T03:56:30.468Z,9.96
2018-06-05T03:57:30.332Z,10.01
2018-06-05T03:58:30.207Z,10.10
2018-06-05T03:59:30.090Z,9.93
2018-06-05T04:00:29.956Z,9.93
2018-06-05T04:01:29.833Z,9.89
2018-06-05T04:02:29.707Z,9.89
2018-06-05T04:03:29.583Z,9.99
2018-06-05T04:04:29.462Z,9.89
2018-06-05T04:05:29.337Z,10.06
2018-06-05T04:06:29.214Z,10.07
2018-06-05T04:07:29.089Z,10.01
2018-06-05T04:08:28.967Z,9.96
2018-06-05T04:09:28.837Z,9.96
2018-06-05T04:10:28.715Z,9.94
2018-06-05T04:11:28.590Z,9.86
2018-06-05T04:12:28.467Z,9.86
2018-06-05T04:13:28.342Z,9.94
2018-06-05T04:14:28.216Z,9.89
2018-06-05T04:15:28.090Z,9.88
2018-06-05T04:16:27.970Z,9.94
2018-06-05T04:17:27.840Z,9.94
2018-06-05T04:18:27.727Z,9.88
2018-06-05T04:19:27.591Z,9.99
2018-06-05T04:20:27.465Z,9.86
2018-06-05T04:21:27.343Z,9.85
2018-06-05T04:22:27.216Z,9.82
2018-06-05T04:23:27.097Z,9.86
2018-06-05T04:24:26.968Z,9.88
2018-06-05T04:25:26.846Z,9.89
2018-06-05T04:26:26.723Z,10.07
2018-06-05T04:27:26.594Z,10.03
2018-06-05T04:28:26.471Z,10.14
2018-06-05T04:29:26.345Z,10.06
2018-06-05T04:30:26.221Z,10.21
2018-06-05T04:31:26.096Z,10.26
2018-06-05T04:32:25.972Z,10.30
2018-06-05T04:33:25.847Z,10.43
2018-06-05T04:34:25.725Z,10.47
2018-06-05T04:35:25.600Z,10.58
2018-06-05T04:36:25.477Z,10.68
2018-06-05T04:37:25.447Z,10.65
2018-06-05T04:38:25.222Z,10.76
2018-06-05T04:39:25.111Z,10.81
2018-06-05T04:40:24.977Z,10.98
2018-06-05T04:41:24.850Z,11.01
2018-06-05T04:42:24.728Z,11.24
2018-06-05T04:43:24.604Z,11.14
2018-06-05T04:44:24.481Z,11.35
2018-06-05T04:45:24.354Z,11.44
2018-06-05T04:46:24.239Z,11.49
2018-06-05T04:47:24.105Z,11.56
2018-06-05T04:48:23.984Z,11.61
2018-06-05T04:49:23.862Z,11.64
2018-06-05T04:50:23.734Z,11.67
2018-06-05T04:51:23.613Z,11.59
2018-06-05T04:52:23.488Z,11.56
2018-06-05T04:53:23.363Z,11.62
2018-06-05T04:54:23.242Z,11.57
2018-06-05T04:55:23.120Z,11.54
2018-06-05T04:56:23.001Z,11.56
2018-06-05T04:57:22.871Z,11.53
2018-06-05T04:58:22.746Z,11.57
2018-06-05T04:59:22.625Z,11.75
2018-06-05T05:00:22.502Z,11.89
2018-06-05T05:01:22.377Z,12.04
2018-06-05T05:02:22.255Z,12.20
2018-06-05T05:03:22.154Z,12.39
2018-06-05T05:04:22.005Z,12.41
2018-06-05T05:05:21.882Z,12.39
2018-06-05T05:06:21.765Z,12.33
2018-06-05T05:07:21.643Z,12.46
2018-06-05T05:08:21.513Z,12.46
2018-06-05T05:09:21.391Z,12.64
2018-06-05T05:10:21.272Z,12.46
2018-06-05T05:11:21.144Z,12.45
2018-06-05T05:12:21.024Z,12.54
2018-06-05T05:13:20.898Z,12.64
2018-06-05T05:14:20.780Z,12.66
2018-06-05T05:15:20.655Z,12.66
2018-06-05T05:16:20.584Z,12.75
2018-06-05T05:17:20.407Z,12.78
2018-06-05T05:18:20.284Z,12.78
2018-06-05T05:19:20.162Z,12.82
2018-06-05T05:20:20.037Z,12.93
2018-06-05T05:21:19.914Z,12.89
2018-06-05T05:22:19.794Z,12.99
2018-06-05T05:23:19.687Z,12.99
2018-06-05T05:24:19.546Z,13.02
2018-06-05T05:25:19.423Z,13.15
2018-06-05T05:26:19.302Z,13.21
2018-06-05T05:27:19.178Z,13.20
2018-06-05T05:28:19.057Z,13.24
2018-06-05T05:29:18.935Z,13.25
2018-06-05T05:30:18.811Z,13.38
2018-06-05T05:31:18.689Z,13.41
2018-06-05T05:32:18.566Z,13.37
2018-06-05T05:33:18.443Z,13.30
2018-06-05T05:34:18.323Z,13.49
2018-06-05T05:35:18.199Z,13.58
2018-06-05T05:36:18.075Z,13.63
2018-06-05T05:37:17.956Z,13.74
2018-06-05T05:38:17.827Z,13.73
2018-06-05T05:39:17.706Z,13.63
2018-06-05T05:40:17.585Z,13.59
2018-06-05T05:41:17.461Z,13.30
2018-06-05T05:42:17.340Z,13.44
2018-06-05T05:43:17.220Z,13.58
2018-06-05T05:44:17.095Z,13.41
2018-06-05T05:45:16.974Z,13.46
2018-06-05T05:46:16.856Z,13.38
2018-06-05T05:47:16.731Z,13.69
2018-06-05T05:48:16.609Z,13.70
2018-06-05T05:49:16.485Z,13.79
2018-06-05T05:50:16.362Z,13.83
2018-06-05T05:51:16.242Z,13.89
2018-06-05T05:52:16.118Z,14.02
2018-06-05T05:53:15.993Z,13.96
2018-06-05T05:54:15.875Z,13.99
2018-06-05T05:55:15.751Z,13.91
2018-06-05T05:56:15.629Z,13.96
2018-06-05T05:57:15.507Z,14.25
2018-06-05T05:58:15.384Z,14.31
2018-06-05T05:59:15.262Z,14.20
2018-06-05T06:00:15.141Z,14.10
2018-06-05T06:01:15.020Z,14.24
2018-06-05T06:02:14.900Z,14.19
2018-06-05T06:03:14.778Z,14.32
2018-06-05T06:04:14.654Z,14.44
2018-06-05T06:05:14.530Z,14.61
2018-06-05T06:06:14.413Z,14.61
2018-06-05T06:07:14.291Z,14.57
2018-06-05T06:08:14.170Z,14.57
2018-06-05T06:09:14.044Z,14.56
2018-06-05T06:10:13.924Z,14.54
2018-06-05T06:11:13.803Z,14.54
2018-06-05T06:12:13.680Z,14.53
2018-06-05T06:13:13.559Z,14.50
2018-06-05T06:14:13.434Z,14.52
2018-06-05T06:15:13.313Z,14.80
2018-06-05T06:16:13.193Z,14.69
2018-06-05T06:17:13.071Z,14.72
2018-06-05T06:18:12.949Z,14.80
2018-06-05T06:19:12.825Z,14.78
2018-06-05T06:20:12.706Z,14.84
2018-06-05T06:21:12.583Z,14.94
2018-06-05T06:22:12.465Z,15.01
2018-06-05T06:23:12.340Z,15.01
2018-06-05T06:24:12.218Z,15.05
2018-06-05T06:25:12.096Z,15.06
2018-06-05T06:26:11.974Z,14.98
2018-06-05T06:27:11.851Z,15.05
2018-06-05T06:28:11.732Z,15.12
2018-06-05T06:29:11.610Z,15.19
2018-06-05T06:30:11.487Z,15.26
2018-06-05T06:31:11.369Z,15.27
2018-06-05T06:32:11.246Z,15.19
2018-06-05T06:33:11.122Z,15.12
2018-06-05T06:34:11.002Z,15.11
2018-06-05T06:35:10.883Z,15.05
2018-06-05T06:36:10.759Z,15.08
2018-06-05T06:37:10.636Z,15.05
2018-06-05T06:38:10.516Z,14.99
2018-06-05T06:39:10.398Z,15.11
2018-06-05T06:40:10.273Z,15.20
2018-06-05T06:41:10.152Z,15.23
2018-06-05T06:42:10.035Z,15.20
2018-06-05T06:43:09.908Z,15.19
2018-06-05T06:44:09.787Z,15.11
2018-06-05T06:45:09.666Z,15.02
2018-06-05T06:46:09.544Z,15.08
2018-06-05T06:47:09.424Z,15.13
2018-06-05T06:48:09.301Z,15.06
2018-06-05T06:49:09.179Z,15.21
2018-06-05T06:50:09.058Z,15.21
2018-06-05T06:51:08.940Z,15.28
2018-06-05T06:52:08.816Z,15.26
2018-06-05T06:53:08.693Z,15.33
2018-06-05T06:54:08.611Z,15.28
2018-06-05T06:55:08.454Z,15.46
2018-06-05T06:56:08.332Z,15.41
2018-06-05T06:57:08.209Z,15.51
2018-06-05T06:58:08.090Z,15.49
2018-06-05T06:59:07.963Z,15.33
2018-06-05T07:00:07.854Z,15.30
2018-06-05T07:01:07.721Z,15.28
2018-06-05T07:02:07.602Z,15.41
2018-06-05T07:03:07.481Z,15.49
2018-06-05T07:04:07.363Z,15.61
2018-06-05T07:05:07.239Z,15.49
2018-06-05T07:06:07.116Z,15.57
2018-06-05T07:07:06.998Z,15.57
2018-06-05T07:08:06.877Z,15.61
2018-06-05T07:09:06.753Z,15.72
2018-06-05T07:10:06.631Z,15.76
2018-06-05T07:11:06.511Z,15.75
2018-06-05T07:12:06.393Z,15.76
2018-06-05T07:13:06.270Z,15.92
2018-06-05T07:14:06.146Z,15.92
2018-06-05T07:15:06.027Z,16.07
2018-06-05T07:16:05.907Z,15.93
2018-06-05T07:17:05.785Z,15.93
2018-06-05T07:18:05.662Z,15.96
2018-06-05T07:19:05.542Z,16.11
2018-06-05T07:20:05.422Z,16.04
2018-06-05T07:21:05.303Z,15.93
2018-06-05T07:22:05.182Z,16.00
2018-06-05T07:23:05.064Z,16.03
2018-06-05T07:24:04.977Z,15.96
2018-06-05T07:25:04.819Z,15.97
2018-06-05T07:26:04.697Z,16.14
2018-06-05T07:27:04.580Z,16.01
2018-06-05T07:28:04.460Z,15.92
2018-06-05T07:29:04.332Z,15.92
2018-06-05T07:30:04.213Z,15.96
2018-06-05T07:31:04.092Z,15.79
2018-06-05T07:32:03.974Z,15.85
2018-06-05T07:33:03.850Z,15.82
2018-06-05T07:34:03.732Z,15.92
2018-06-05T07:35:03.609Z,15.96
2018-06-05T07:36:03.488Z,16.23
2018-06-05T07:37:03.372Z,16.27
2018-06-05T07:38:03.244Z,16.27
2018-06-05T07:39:03.125Z,16.33
2018-06-05T07:40:03.006Z,16.38
2018-06-05T07:41:02.883Z,16.34
2018-06-05T07:42:02.763Z,16.37
2018-06-05T07:43:02.644Z,16.44
2018-06-05T07:44:02.522Z,16.55
2018-06-05T07:45:02.401Z,16.53
2018-06-05T07:46:02.282Z,16.59
2018-06-05T07:47:02.161Z,16.71
2018-06-05T07:48:02.040Z,16.75
2018-06-05T07:49:01.919Z,16.80
2018-06-05T07:50:01.875Z,16.86
2018-06-05T07:51:01.677Z,16.85
2018-06-05T07:52:01.558Z,16.98
2018-06-05T07:53:01.439Z,16.99
2018-06-05T07:54:01.319Z,16.92
2018-06-05T07:55:01.195Z,17.11
2018-06-05T07:56:01.079Z,17.30
2018-06-05T07:57:00.955Z,17.32
2018-06-05T07:58:00.834Z,17.46
2018-06-05T07:59:00.716Z,17.32
2018-06-05T08:00:00.595Z,17.40
2018-06-05T08:01:00.473Z,17.43
2018-06-05T08:02:00.354Z,17.55
2018-06-05T08:03:00.231Z,17.78
2018-06-05T08:04:00.115Z,17.81
2018-06-05T08:04:59.994Z,17.57
2018-06-05T08:05:59.874Z,17.79
2018-06-05T08:06:59.751Z,17.85
2018-06-05T08:07:59.632Z,17.82
2018-06-05T08:08:59.514Z,17.67
2018-06-05T08:09:59.392Z,17.81
2018-06-05T08:10:59.271Z,17.92
2018-06-05T08:11:59.156Z,17.91
2018-06-05T08:12:59.033Z,18.09
2018-06-05T08:13:58.916Z,18.21
2018-06-05T08:14:58.795Z,18.07
2018-06-05T08:15:58.673Z,17.88
2018-06-05T08:16:58.557Z,18.09
2018-06-05T08:17:58.435Z,18.12
2018-06-05T08:18:58.322Z,18.39
2018-06-05T08:19:58.197Z,18.47
2018-06-05T08:20:58.078Z,18.73
2018-06-05T08:21:57.958Z,18.83
2018-06-05T08:22:57.836Z,18.64
2018-06-05T08:23:57.724Z,18.46
2018-06-05T08:24:57.597Z,18.50
2018-06-05T08:25:57.479Z,18.61
2018-06-05T08:26:57.365Z,18.65
2018-06-05T08:27:57.244Z,18.83
2018-06-05T08:28:57.126Z,18.82
2018-06-05T08:29:57.004Z,19.13
2018-06-05T08:30:56.886Z,19.11
2018-06-05T08:31:56.769Z,19.17
2018-06-05T08:32:56.647Z,19.02
2018-06-05T08:33:56.526Z,19.08
2018-06-05T08:34:56.413Z,19.05
2018-06-05T08:35:56.292Z,19.14
2018-06-05T08:36:56.171Z,19.08
2018-06-05T08:37:56.069Z,19.13
2018-06-05T08:38:55.939Z,19.23
2018-06-05T08:39:55.817Z,19.25
2018-06-05T08:40:55.697Z,19.23
2018-06-05T08:41:55.576Z,19.23
2018-06-05T08:42:55.458Z,19.11
2018-06-05T08:43:55.340Z,19.31
2018-06-05T08:44:55.221Z,19.32
2018-06-05T08:45:55.105Z,19.36
2018-06-05T08:46:54.984Z,19.43
2018-06-05T08:47:54.871Z,19.58
2018-06-05T08:48:54.746Z,19.47
2018-06-05T08:49:54.630Z,19.54
2018-06-05T08:50:54.511Z,19.57
2018-06-05T08:51:54.392Z,19.72
2018-06-05T08:52:54.275Z,19.83
2018-06-05T08:53:54.155Z,19.88
2018-06-05T08:54:54.036Z,20.12
2018-06-05T08:55:53.919Z,20.25
2018-06-05T08:56:53.797Z,20.34
2018-06-05T08:57:53.683Z,20.20
2018-06-05T08:58:53.569Z,19.91
2018-06-05T08:59:53.501Z,19.88
2018-06-05T09:00:53.327Z,19.95
2018-06-05T09:01:53.214Z,20.02
2018-06-05T09:02:53.089Z,20.10
2018-06-05T09:03:52.976Z,20.13
2018-06-05T09:04:52.857Z,20.35
2018-06-05T09:05:52.735Z,20.18
2018-06-05T09:06:52.621Z,20.24
2018-06-05T09:07:52.502Z,20.00
2018-06-05T09:08:52.382Z,19.93
2018-06-05T09:09:52.266Z,19.83
2018-06-05T09:10:52.180Z,19.88
2018-06-05T09:11:52.032Z,20.05
2018-06-05T09:12:51.957Z,20.34
2018-06-05T09:13:51.797Z,20.39
2018-06-05T09:14:51.676Z,20.50
2018-06-05T09:15:51.559Z,20.56
2018-06-05T09:16:51.442Z,20.31
2018-06-05T09:17:51.320Z,20.28
2018-06-05T09:18:51.200Z,20.28
2018-06-05T09:19:51.087Z,20.46
2018-06-05T09:20:50.970Z,20.21
2018-06-05T09:21:50.850Z,19.87
2018-06-05T09:22:50.732Z,19.20
2018-06-05T09:23:50.614Z,19.33
2018-06-05T09:24:50.496Z,19.14
2018-06-05T09:25:50.380Z,18.99
2018-06-05T09:26:50.262Z,18.86
2018-06-05T09:27:50.141Z,18.73
2018-06-05T09:28:50.024Z,18.39
2018-06-05T09:29:49.906Z,18.22
2018-06-05T09:30:49.787Z,18.42
2018-06-05T09:31:49.670Z,18.50
2018-06-05T09:32:49.554Z,18.57
2018-06-05T09:33:49.432Z,19.11
2018-06-05T09:34:49.317Z,19.21
2018-06-05T09:35:49.199Z,19.58
2018-06-05T09:36:51.260Z,19.66
2018-06-05T09:37:48.964Z,19.84
2018-06-05T09:38:48.842Z,19.75
2018-06-05T09:39:48.722Z,19.68
2018-06-05T09:40:48.606Z,19.70
2018-06-05T09:41:48.489Z,19.57
2018-06-05T09:42:48.370Z,19.47
2018-06-05T09:43:48.251Z,19.31
2018-06-05T09:44:48.131Z,19.31
2018-06-05T09:45:48.015Z,19.35
2018-06-05T09:46:48.810Z,19.28
2018-06-05T09:47:47.777Z,19.35
2018-06-05T09:48:47.662Z,19.33
2018-06-05T09:49:47.541Z,19.50
2018-06-05T09:50:47.421Z,19.25
2018-06-05T09:51:47.305Z,19.29
2018-06-05T09:52:47.185Z,19.73
2018-06-05T09:53:47.070Z,19.93
2018-06-05T09:54:46.952Z,20.16
2018-06-05T09:55:46.832Z,20.16
2018-06-05T09:56:46.742Z,20.27
2018-06-05T09:57:46.727Z,20.23
2018-06-05T09:58:46.479Z,20.21
2018-06-05T09:59:46.361Z,20.00
2018-06-05T10:00:46.242Z,19.87
2018-06-05T10:01:46.123Z,20.02
2018-06-05T10:02:46.008Z,20.31
2018-06-05T10:03:45.937Z,20.56
2018-06-05T10:04:45.771Z,20.53
2018-06-05T10:05:45.653Z,20.24
2018-06-05T10:06:45.534Z,20.08
2018-06-05T10:07:45.418Z,19.83
2018-06-05T10:08:45.301Z,19.58
2018-06-05T10:09:45.181Z,19.93
2018-06-05T10:10:45.067Z,20.24
2018-06-05T10:11:44.947Z,20.62
2018-06-05T10:12:44.828Z,21.01
2018-06-05T10:13:44.711Z,21.29
2018-06-05T10:14:44.594Z,21.06
2018-06-05T10:15:44.483Z,21.06
2018-06-05T10:16:44.361Z,20.59
2018-06-05T10:17:44.245Z,20.42
2018-06-05T10:18:44.125Z,19.90
2018-06-05T10:19:44.013Z,19.57
2018-06-05T10:20:43.890Z,19.42
2018-06-05T10:21:43.773Z,19.36
2018-06-05T10:22:43.658Z,19.47
2018-06-05T10:23:43.545Z,19.65
2018-06-05T10:24:43.420Z,19.72
2018-06-05T10:25:43.304Z,19.73
2018-06-05T10:26:43.187Z,19.80
2018-06-05T10:27:43.070Z,19.91
2018-06-05T10:28:42.953Z,20.24
2018-06-05T10:29:42.834Z,20.49
2018-06-05T10:30:42.717Z,20.81
2018-06-05T10:31:42.604Z,21.23
2018-06-05T10:32:42.483Z,21.59
2018-06-05T10:33:42.366Z,21.90
2018-06-05T10:34:42.279Z,21.92
2018-06-05T10:35:42.135Z,22.01
2018-06-05T10:36:42.019Z,22.17
2018-06-05T10:37:41.900Z,22.34
2018-06-05T10:38:41.784Z,22.56
2018-06-05T10:39:41.666Z,22.41
2018-06-05T10:40:41.547Z,22.35
2018-06-05T10:41:41.437Z,22.34
2018-06-05T10:42:41.315Z,22.02
2018-06-05T10:43:41.202Z,21.91
2018-06-05T10:44:41.086Z,21.79
2018-06-05T10:45:40.970Z,21.71
2018-06-05T10:46:40.866Z,21.50
2018-06-05T10:47:40.740Z,21.35
2018-06-05T10:48:40.621Z,21.48
2018-06-05T10:49:40.504Z,21.48
2018-06-05T10:50:40.389Z,21.41
2018-06-05T10:51:40.274Z,21.39
2018-06-05T10:52:40.154Z,21.35
2018-06-05T10:53:40.078Z,21.36
2018-06-05T10:54:39.924Z,21.29
2018-06-05T10:55:39.809Z,21.46
2018-06-05T10:56:39.690Z,21.71
2018-06-05T10:57:39.580Z,21.75
2018-06-05T10:58:39.457Z,21.60
2018-06-05T10:59:39.347Z,21.61
2018-06-05T11:00:39.227Z,21.27
2018-06-05T11:01:39.112Z,21.24
2018-06-05T11:02:38.993Z,21.46
2018-06-05T11:03:38.879Z,21.36
2018-06-05T11:04:38.762Z,21.50
2018-06-05T11:05:38.648Z,21.17
2018-06-05T11:06:38.531Z,21.09
2018-06-05T11:07:38.414Z,20.89
2018-06-05T11:08:38.298Z,20.79
2018-06-05T11:09:38.183Z,20.89
2018-06-05T11:10:40.806Z,21.23
2018-06-05T11:11:37.953Z,21.66
2018-06-05T11:12:37.842Z,21.81
2018-06-05T11:13:37.723Z,21.91
2018-06-05T11:14:37.607Z,21.99
2018-06-05T11:15:37.492Z,22.07
2018-06-05T11:16:37.374Z,21.94
2018-06-05T11:17:37.256Z,21.99
2018-06-05T11:18:37.143Z,21.94
2018-06-05T11:19:37.026Z,21.66
2018-06-05T11:20:36.911Z,21.35
2018-06-05T11:21:36.793Z,21.08
2018-06-05T11:22:36.680Z,20.69
2018-06-05T11:23:36.567Z,20.53
2018-06-05T11:24:36.448Z,20.59
2018-06-05T11:25:36.330Z,20.28
2018-06-05T11:26:36.216Z,20.30
2018-06-05T11:27:36.099Z,20.28
2018-06-05T11:28:35.982Z,20.30
2018-06-05T11:29:35.912Z,20.42
2018-06-05T11:30:35.751Z,20.42
2018-06-05T11:31:35.638Z,20.49
2018-06-05T11:32:35.518Z,20.47
2018-06-05T11:33:35.402Z,20.34
2018-06-05T11:34:35.286Z,20.31
2018-06-05T11:35:35.170Z,20.25
2018-06-05T11:36:35.082Z,20.33
2018-06-05T11:37:34.937Z,20.35
2018-06-05T11:38:34.826Z,20.59
2018-06-05T11:39:34.704Z,20.74
2018-06-05T11:40:34.588Z,20.74
2018-06-05T11:41:34.472Z,20.89
2018-06-05T11:42:34.354Z,20.76
2018-06-05T11:43:34.237Z,20.51
2018-06-05T11:44:34.123Z,20.38
2018-06-05T11:45:34.006Z,20.35
2018-06-05T11:46:33.922Z,20.39
2018-06-05T11:47:33.784Z,20.31
2018-06-05T11:48:33.676Z,20.20
2018-06-05T11:49:33.544Z,20.27
2018-06-05T11:50:33.422Z,20.20
2018-06-05T11:51:33.306Z,20.23
2018-06-05T11:52:33.200Z,21.32
2018-06-05T11:53:33.072Z,22.52
2018-06-05T11:54:32.959Z,22.84
2018-06-05T11:55:32.840Z,22.19
2018-06-05T11:56:32.725Z,21.98
2018-06-05T11:57:32.608Z,21.69
2018-06-05T11:58:32.489Z,21.38
2018-06-05T11:59:32.377Z,21.27
2018-06-05T12:00:32.262Z,21.14
2018-06-05T12:01:32.146Z,20.95
2018-06-05T12:02:32.031Z,21.09
2018-06-05T12:03:31.912Z,20.91
2018-06-05T12:04:31.809Z,21.09
2018-06-05T12:05:33.842Z,21.11
2018-06-05T12:06:31.563Z,21.34
2018-06-05T12:07:31.453Z,21.24
2018-06-05T12:08:31.329Z,21.64
2018-06-05T12:09:31.216Z,22.10
2018-06-05T12:10:31.101Z,21.75
2018-06-05T12:11:30.982Z,21.75
2018-06-05T12:12:30.870Z,21.57
2018-06-05T12:13:30.751Z,21.46
2018-06-05T12:14:30.636Z,21.51
2018-06-05T12:15:30.518Z,21.51
2018-06-05T12:16:30.404Z,22.52
2018-06-05T12:17:30.286Z,23.19
2018-06-05T12:18:30.172Z,22.71
2018-06-05T12:19:30.056Z,22.52
2018-06-05T12:20:29.941Z,22.39
2018-06-05T12:21:29.823Z,22.20
2018-06-05T12:22:29.732Z,21.98
2018-06-05T12:23:29.627Z,21.95
2018-06-05T12:24:29.478Z,21.72
2018-06-05T12:25:29.417Z,21.29
2018-06-05T12:26:29.244Z,21.29
2018-06-05T12:27:29.131Z,20.91
2018-06-05T12:28:29.016Z,20.93
2018-06-05T12:29:28.900Z,21.01
2018-06-05T12:30:28.780Z,20.95
2018-06-05T12:31:28.670Z,20.87
2018-06-05T12:32:28.556Z,20.49
2018-06-05T12:33:28.435Z,20.54
2018-06-05T12:34:28.316Z,20.64
2018-06-05T12:35:28.205Z,20.54
2018-06-05T12:36:28.088Z,20.72
2018-06-05T12:37:27.968Z,20.72
2018-06-05T12:38:27.854Z,20.76
2018-06-05T12:39:27.736Z,20.80
2018-06-05T12:40:27.687Z,21.44
2018-06-05T12:41:27.508Z,22.89
2018-06-05T12:42:27.390Z,24.22
2018-06-05T12:43:27.275Z,25.13
2018-06-05T12:44:27.156Z,25.80
2018-06-05T12:45:27.040Z,26.80
2018-06-05T12:46:26.930Z,27.17
2018-06-05T12:47:26.816Z,27.28
2018-06-05T12:48:26.700Z,26.47
2018-06-05T12:49:26.584Z,25.67
2018-06-05T12:50:26.472Z,25.74
2018-06-05T12:51:26.358Z,25.37
2018-06-05T12:52:26.242Z,25.16